sensor_id;sensor_type;location;lat;lon;timestamp;P1;durP1;ratioP1;P2;durP2;ratioP2
13641;SDS011;6894;52.196;9.904;2023-06-14T00:01:12;8.97;;;3.13;;
13641;SDS011;6894;52.196;9.904;2023-06-14T00:03:39;3.73;;;2.30;;
13641;SDS011;6894;52.196;9.904;2023-06-14T00:06:06;4.43;;;2.90;;
13641;SDS011;6894;52.196;9.904;2023-06-14T00:08:33;7.60;;;3.00;;
13641;SDS011;6894;52.196;9.904;2023-06-14T00:11:01;3.60;;;2.63;;
13641;SDS011;6894;52.196;9.904;2023-06-14T00:13:27;3.93;;;2.37;;
13641;SDS011;6894;52.196;9.904;2023-06-14T00:15:54;4.90;;;2.80;;
13641;SDS011;6894;52.196;9.904;2023-06-14T00:18:21;5.53;;;2.67;;
13641;SDS011;6894;52.196;9.904;2023-06-14T00:20:50;3.17;;;2.30;;
13641;SDS011;6894;52.196;9.904;2023-06-14T00:23:17;5.53;;;2.73;;
13641;SDS011;6894;52.196;9.904;2023-06-14T00:25:44;4.03;;;2.50;;
13641;SDS011;6894;52.196;9.904;2023-06-14T00:28:12;3.73;;;2.87;;
13641;SDS011;6894;52.196;9.904;2023-06-14T00:30:39;6.73;;;3.10;;
13641;SDS011;6894;52.196;9.904;2023-06-14T00:33:05;3.80;;;2.63;;
13641;SDS011;6894;52.196;9.904;2023-06-14T00:35:32;3.17;;;2.67;;
13641;SDS011;6894;52.196;9.904;2023-06-14T00:37:59;2.63;;;2.43;;
13641;SDS011;6894;52.196;9.904;2023-06-14T00:40:26;2.73;;;2.40;;
13641;SDS011;6894;52.196;9.904;2023-06-14T00:42:53;4.17;;;2.50;;
13641;SDS011;6894;52.196;9.904;2023-06-14T00:45:21;3.80;;;2.60;;
13641;SDS011;6894;52.196;9.904;2023-06-14T00:47:48;3.63;;;2.73;;
13641;SDS011;6894;52.196;9.904;2023-06-14T00:50:17;3.30;;;2.40;;
13641;SDS011;6894;52.196;9.904;2023-06-14T00:52:46;2.97;;;2.60;;
13641;SDS011;6894;52.196;9.904;2023-06-14T00:55:13;7.00;;;2.80;;
13641;SDS011;6894;52.196;9.904;2023-06-14T00:57:39;3.43;;;2.90;;
13641;SDS011;6894;52.196;9.904;2023-06-14T01:00:07;2.83;;;2.50;;
13641;SDS011;6894;52.196;9.904;2023-06-14T01:02:36;3.57;;;2.70;;
13641;SDS011;6894;52.196;9.904;2023-06-14T01:05:03;3.53;;;2.23;;
13641;SDS011;6894;52.196;9.904;2023-06-14T01:07:33;2.80;;;2.50;;
13641;SDS011;6894;52.196;9.904;2023-06-14T01:10:10;3.53;;;2.40;;
13641;SDS011;6894;52.196;9.904;2023-06-14T01:12:48;4.70;;;2.80;;
13641;SDS011;6894;52.196;9.904;2023-06-14T01:15:21;4.17;;;2.83;;
13641;SDS011;6894;52.196;9.904;2023-06-14T01:17:50;3.33;;;2.77;;
13641;SDS011;6894;52.196;9.904;2023-06-14T01:20:19;6.00;;;2.83;;
13641;SDS011;6894;52.196;9.904;2023-06-14T01:22:51;3.57;;;2.83;;
13641;SDS011;6894;52.196;9.904;2023-06-14T01:25:19;4.60;;;2.53;;
13641;SDS011;6894;52.196;9.904;2023-06-14T01:27:48;4.20;;;2.67;;
13641;SDS011;6894;52.196;9.904;2023-06-14T01:30:16;3.30;;;3.00;;
13641;SDS011;6894;52.196;9.904;2023-06-14T01:32:44;3.30;;;3.00;;
13641;SDS011;6894;52.196;9.904;2023-06-14T01:35:11;5.93;;;2.60;;
13641;SDS011;6894;52.196;9.904;2023-06-14T01:37:38;4.40;;;3.10;;
13641;SDS011;6894;52.196;9.904;2023-06-14T01:40:08;3.07;;;2.67;;
13641;SDS011;6894;52.196;9.904;2023-06-14T01:42:36;3.10;;;2.90;;
13641;SDS011;6894;52.196;9.904;2023-06-14T01:45:04;4.23;;;3.20;;
13641;SDS011;6894;52.196;9.904;2023-06-14T01:47:32;6.33;;;2.57;;
13641;SDS011;6894;52.196;9.904;2023-06-14T01:50:01;4.47;;;3.10;;
13641;SDS011;6894;52.196;9.904;2023-06-14T01:52:29;5.27;;;2.70;;
13641;SDS011;6894;52.196;9.904;2023-06-14T01:54:56;3.70;;;2.67;;
13641;SDS011;6894;52.196;9.904;2023-06-14T01:57:24;2.77;;;2.57;;
13641;SDS011;6894;52.196;9.904;2023-06-14T01:59:52;3.63;;;3.10;;
13641;SDS011;6894;52.196;9.904;2023-06-14T02:02:18;2.83;;;2.63;;
13641;SDS011;6894;52.196;9.904;2023-06-14T02:04:45;3.27;;;2.97;;
13641;SDS011;6894;52.196;9.904;2023-06-14T02:07:12;3.70;;;2.67;;
13641;SDS011;6894;52.196;9.904;2023-06-14T02:09:39;3.13;;;2.00;;
13641;SDS011;6894;52.196;9.904;2023-06-14T02:12:06;3.30;;;2.60;;
13641;SDS011;6894;52.196;9.904;2023-06-14T02:14:35;2.90;;;2.43;;
13641;SDS011;6894;52.196;9.904;2023-06-14T02:17:03;3.03;;;2.77;;
13641;SDS011;6894;52.196;9.904;2023-06-14T02:19:31;7.00;;;2.93;;
13641;SDS011;6894;52.196;9.904;2023-06-14T02:21:58;3.10;;;2.80;;
13641;SDS011;6894;52.196;9.904;2023-06-14T02:24:25;3.97;;;2.87;;
13641;SDS011;6894;52.196;9.904;2023-06-14T02:26:52;3.03;;;2.50;;
13641;SDS011;6894;52.196;9.904;2023-06-14T02:29:18;5.43;;;3.27;;
13641;SDS011;6894;52.196;9.904;2023-06-14T02:31:47;3.77;;;2.63;;
13641;SDS011;6894;52.196;9.904;2023-06-14T02:34:14;4.93;;;3.10;;
13641;SDS011;6894;52.196;9.904;2023-06-14T02:36:42;4.43;;;2.87;;
13641;SDS011;6894;52.196;9.904;2023-06-14T02:39:09;4.23;;;2.70;;
13641;SDS011;6894;52.196;9.904;2023-06-14T02:41:39;3.00;;;2.70;;
13641;SDS011;6894;52.196;9.904;2023-06-14T02:44:06;3.40;;;2.57;;
13641;SDS011;6894;52.196;9.904;2023-06-14T02:46:32;3.60;;;2.63;;
13641;SDS011;6894;52.196;9.904;2023-06-14T02:49:00;2.90;;;2.70;;
13641;SDS011;6894;52.196;9.904;2023-06-14T02:51:27;5.93;;;2.90;;
13641;SDS011;6894;52.196;9.904;2023-06-14T02:53:54;3.77;;;2.67;;
13641;SDS011;6894;52.196;9.904;2023-06-14T02:56:21;3.37;;;3.00;;
13641;SDS011;6894;52.196;9.904;2023-06-14T02:58:48;2.40;;;2.20;;
13641;SDS011;6894;52.196;9.904;2023-06-14T03:01:15;3.50;;;2.93;;
13641;SDS011;6894;52.196;9.904;2023-06-14T03:03:43;3.70;;;2.93;;
13641;SDS011;6894;52.196;9.904;2023-06-14T03:06:11;3.10;;;2.43;;
13641;SDS011;6894;52.196;9.904;2023-06-14T03:08:39;3.20;;;2.50;;
13641;SDS011;6894;52.196;9.904;2023-06-14T03:11:06;2.50;;;2.30;;
13641;SDS011;6894;52.196;9.904;2023-06-14T03:13:33;3.63;;;2.70;;
13641;SDS011;6894;52.196;9.904;2023-06-14T03:16:00;2.97;;;2.67;;
13641;SDS011;6894;52.196;9.904;2023-06-14T03:18:28;3.93;;;3.10;;
13641;SDS011;6894;52.196;9.904;2023-06-14T03:20:55;4.33;;;2.83;;
13641;SDS011;6894;52.196;9.904;2023-06-14T03:23:24;5.53;;;3.03;;
13641;SDS011;6894;52.196;9.904;2023-06-14T03:25:51;3.03;;;2.40;;
13641;SDS011;6894;52.196;9.904;2023-06-14T03:28:18;3.50;;;2.53;;
13641;SDS011;6894;52.196;9.904;2023-06-14T03:30:45;3.53;;;3.23;;
13641;SDS011;6894;52.196;9.904;2023-06-14T03:33:11;2.90;;;2.40;;
13641;SDS011;6894;52.196;9.904;2023-06-14T03:35:38;5.20;;;3.20;;
13641;SDS011;6894;52.196;9.904;2023-06-14T03:38:05;3.67;;;3.00;;
13641;SDS011;6894;52.196;9.904;2023-06-14T03:40:33;6.70;;;3.70;;
13641;SDS011;6894;52.196;9.904;2023-06-14T03:43:00;3.87;;;3.43;;
13641;SDS011;6894;52.196;9.904;2023-06-14T03:45:26;4.13;;;3.37;;
13641;SDS011;6894;52.196;9.904;2023-06-14T03:47:53;6.87;;;3.03;;
13641;SDS011;6894;52.196;9.904;2023-06-14T03:50:21;4.80;;;2.93;;
13641;SDS011;6894;52.196;9.904;2023-06-14T03:52:48;3.87;;;3.10;;
13641;SDS011;6894;52.196;9.904;2023-06-14T03:55:15;4.30;;;2.80;;
13641;SDS011;6894;52.196;9.904;2023-06-14T03:57:43;3.50;;;3.20;;
13641;SDS011;6894;52.196;9.904;2023-06-14T04:00:10;4.27;;;2.97;;
13641;SDS011;6894;52.196;9.904;2023-06-14T04:02:38;3.30;;;2.80;;
13641;SDS011;6894;52.196;9.904;2023-06-14T04:05:05;3.97;;;3.10;;
13641;SDS011;6894;52.196;9.904;2023-06-14T04:07:33;3.67;;;2.47;;
13641;SDS011;6894;52.196;9.904;2023-06-14T04:10:05;6.43;;;3.23;;
13641;SDS011;6894;52.196;9.904;2023-06-14T04:12:33;3.83;;;2.80;;
13641;SDS011;6894;52.196;9.904;2023-06-14T04:15:01;3.03;;;2.73;;
13641;SDS011;6894;52.196;9.904;2023-06-14T04:17:30;3.77;;;2.70;;
13641;SDS011;6894;52.196;9.904;2023-06-14T04:19:58;3.70;;;3.40;;
13641;SDS011;6894;52.196;9.904;2023-06-14T04:22:24;6.40;;;2.60;;
13641;SDS011;6894;52.196;9.904;2023-06-14T04:24:53;2.90;;;2.50;;
13641;SDS011;6894;52.196;9.904;2023-06-14T04:27:20;3.17;;;2.20;;
13641;SDS011;6894;52.196;9.904;2023-06-14T04:29:50;3.73;;;2.53;;
13641;SDS011;6894;52.196;9.904;2023-06-14T04:32:23;3.43;;;2.33;;
13641;SDS011;6894;52.196;9.904;2023-06-14T04:34:50;4.83;;;2.80;;
13641;SDS011;6894;52.196;9.904;2023-06-14T04:37:18;2.27;;;2.00;;
13641;SDS011;6894;52.196;9.904;2023-06-14T04:39:46;3.00;;;2.50;;
13641;SDS011;6894;52.196;9.904;2023-06-14T04:42:12;2.33;;;2.13;;
13641;SDS011;6894;52.196;9.904;2023-06-14T04:44:41;2.73;;;2.40;;
13641;SDS011;6894;52.196;9.904;2023-06-14T04:47:08;3.20;;;2.87;;
13641;SDS011;6894;52.196;9.904;2023-06-14T04:49:37;2.50;;;2.10;;
13641;SDS011;6894;52.196;9.904;2023-06-14T04:52:05;2.33;;;2.03;;
13641;SDS011;6894;52.196;9.904;2023-06-14T04:54:35;2.60;;;2.37;;
13641;SDS011;6894;52.196;9.904;2023-06-14T04:57:03;2.70;;;2.10;;
13641;SDS011;6894;52.196;9.904;2023-06-14T04:59:30;3.30;;;2.07;;
13641;SDS011;6894;52.196;9.904;2023-06-14T05:01:58;2.13;;;1.90;;
13641;SDS011;6894;52.196;9.904;2023-06-14T05:04:25;5.33;;;2.93;;
13641;SDS011;6894;52.196;9.904;2023-06-14T05:06:54;2.90;;;2.00;;
13641;SDS011;6894;52.196;9.904;2023-06-14T05:09:21;2.80;;;1.80;;
13641;SDS011;6894;52.196;9.904;2023-06-14T05:11:48;5.17;;;2.13;;
13641;SDS011;6894;52.196;9.904;2023-06-14T05:14:15;3.70;;;2.23;;
13641;SDS011;6894;52.196;9.904;2023-06-14T05:16:42;2.63;;;1.90;;
13641;SDS011;6894;52.196;9.904;2023-06-14T05:19:09;6.87;;;1.87;;
13641;SDS011;6894;52.196;9.904;2023-06-14T05:21:36;3.97;;;2.00;;
13641;SDS011;6894;52.196;9.904;2023-06-14T05:24:04;2.00;;;1.70;;
13641;SDS011;6894;52.196;9.904;2023-06-14T05:26:31;2.73;;;1.70;;
13641;SDS011;6894;52.196;9.904;2023-06-14T05:28:58;5.67;;;2.03;;
13641;SDS011;6894;52.196;9.904;2023-06-14T05:31:26;3.07;;;1.90;;
13641;SDS011;6894;52.196;9.904;2023-06-14T05:33:53;3.00;;;1.77;;
13641;SDS011;6894;52.196;9.904;2023-06-14T05:36:20;2.50;;;2.00;;
13641;SDS011;6894;52.196;9.904;2023-06-14T05:38:47;2.37;;;1.57;;
13641;SDS011;6894;52.196;9.904;2023-06-14T05:41:15;2.30;;;1.67;;
13641;SDS011;6894;52.196;9.904;2023-06-14T05:43:42;2.90;;;1.73;;
13641;SDS011;6894;52.196;9.904;2023-06-14T05:46:08;2.10;;;1.63;;
13641;SDS011;6894;52.196;9.904;2023-06-14T05:48:35;1.80;;;1.70;;
13641;SDS011;6894;52.196;9.904;2023-06-14T05:51:02;2.90;;;2.10;;
13641;SDS011;6894;52.196;9.904;2023-06-14T05:53:29;2.17;;;1.90;;
13641;SDS011;6894;52.196;9.904;2023-06-14T05:55:55;3.07;;;2.37;;
13641;SDS011;6894;52.196;9.904;2023-06-14T05:58:23;4.40;;;2.20;;
13641;SDS011;6894;52.196;9.904;2023-06-14T06:00:50;3.63;;;2.17;;
13641;SDS011;6894;52.196;9.904;2023-06-14T06:03:18;3.53;;;2.20;;
13641;SDS011;6894;52.196;9.904;2023-06-14T06:05:46;2.97;;;2.10;;
13641;SDS011;6894;52.196;9.904;2023-06-14T06:08:12;2.50;;;2.30;;
13641;SDS011;6894;52.196;9.904;2023-06-14T06:10:39;3.47;;;2.23;;
13641;SDS011;6894;52.196;9.904;2023-06-14T06:13:06;2.87;;;2.30;;
13641;SDS011;6894;52.196;9.904;2023-06-14T06:15:34;4.00;;;2.50;;
13641;SDS011;6894;52.196;9.904;2023-06-14T06:18:01;4.57;;;2.47;;
13641;SDS011;6894;52.196;9.904;2023-06-14T06:20:28;5.63;;;2.43;;
13641;SDS011;6894;52.196;9.904;2023-06-14T06:22:56;4.37;;;2.40;;
13641;SDS011;6894;52.196;9.904;2023-06-14T06:25:23;3.27;;;2.60;;
13641;SDS011;6894;52.196;9.904;2023-06-14T06:27:51;3.80;;;2.40;;
13641;SDS011;6894;52.196;9.904;2023-06-14T06:30:18;3.33;;;2.30;;
13641;SDS011;6894;52.196;9.904;2023-06-14T06:32:46;6.63;;;2.40;;
13641;SDS011;6894;52.196;9.904;2023-06-14T06:35:13;4.30;;;2.93;;
13641;SDS011;6894;52.196;9.904;2023-06-14T06:37:41;3.67;;;2.83;;
13641;SDS011;6894;52.196;9.904;2023-06-14T06:40:08;3.73;;;2.90;;
13641;SDS011;6894;52.196;9.904;2023-06-14T06:42:35;6.07;;;2.73;;
13641;SDS011;6894;52.196;9.904;2023-06-14T06:45:02;4.47;;;2.57;;
13641;SDS011;6894;52.196;9.904;2023-06-14T06:47:29;2.73;;;2.10;;
13641;SDS011;6894;52.196;9.904;2023-06-14T06:49:57;3.17;;;2.10;;
13641;SDS011;6894;52.196;9.904;2023-06-14T06:52:24;3.97;;;2.50;;
13641;SDS011;6894;52.196;9.904;2023-06-14T06:54:51;5.23;;;2.50;;
13641;SDS011;6894;52.196;9.904;2023-06-14T06:57:20;2.77;;;2.00;;
13641;SDS011;6894;52.196;9.904;2023-06-14T06:59:47;2.27;;;2.00;;
13641;SDS011;6894;52.196;9.904;2023-06-14T07:02:14;3.43;;;2.17;;
13641;SDS011;6894;52.196;9.904;2023-06-14T07:04:41;2.80;;;2.00;;
13641;SDS011;6894;52.196;9.904;2023-06-14T07:07:09;3.13;;;1.90;;
13641;SDS011;6894;52.196;9.904;2023-06-14T07:09:35;3.40;;;2.10;;
13641;SDS011;6894;52.196;9.904;2023-06-14T07:12:02;3.87;;;2.20;;
13641;SDS011;6894;52.196;9.904;2023-06-14T07:14:30;3.97;;;1.83;;
13641;SDS011;6894;52.196;9.904;2023-06-14T07:16:56;2.90;;;2.30;;
13641;SDS011;6894;52.196;9.904;2023-06-14T07:19:23;4.60;;;1.90;;
13641;SDS011;6894;52.196;9.904;2023-06-14T07:21:50;1.90;;;1.80;;
13641;SDS011;6894;52.196;9.904;2023-06-14T07:24:18;1.97;;;1.50;;
13641;SDS011;6894;52.196;9.904;2023-06-14T07:26:46;2.00;;;1.57;;
13641;SDS011;6894;52.196;9.904;2023-06-14T07:29:13;1.97;;;1.40;;
13641;SDS011;6894;52.196;9.904;2023-06-14T07:31:41;1.57;;;1.40;;
13641;SDS011;6894;52.196;9.904;2023-06-14T07:34:08;1.97;;;1.77;;
13641;SDS011;6894;52.196;9.904;2023-06-14T07:36:34;2.33;;;1.77;;
13641;SDS011;6894;52.196;9.904;2023-06-14T07:39:01;3.13;;;1.67;;
13641;SDS011;6894;52.196;9.904;2023-06-14T07:41:32;3.33;;;1.57;;
13641;SDS011;6894;52.196;9.904;2023-06-14T07:43:58;2.10;;;1.90;;
13641;SDS011;6894;52.196;9.904;2023-06-14T07:46:25;2.10;;;1.90;;
13641;SDS011;6894;52.196;9.904;2023-06-14T07:48:52;2.27;;;1.90;;
13641;SDS011;6894;52.196;9.904;2023-06-14T07:51:18;2.17;;;1.50;;
13641;SDS011;6894;52.196;9.904;2023-06-14T07:53:46;2.83;;;1.90;;
13641;SDS011;6894;52.196;9.904;2023-06-14T07:56:13;2.13;;;1.60;;
13641;SDS011;6894;52.196;9.904;2023-06-14T07:58:42;2.13;;;1.90;;
13641;SDS011;6894;52.196;9.904;2023-06-14T08:01:08;3.80;;;1.93;;
13641;SDS011;6894;52.196;9.904;2023-06-14T08:03:36;2.27;;;2.07;;
13641;SDS011;6894;52.196;9.904;2023-06-14T08:06:03;2.20;;;1.50;;
13641;SDS011;6894;52.196;9.904;2023-06-14T08:08:31;1.50;;;1.40;;
13641;SDS011;6894;52.196;9.904;2023-06-14T08:10:57;2.57;;;1.77;;
13641;SDS011;6894;52.196;9.904;2023-06-14T08:13:24;1.87;;;1.63;;
13641;SDS011;6894;52.196;9.904;2023-06-14T08:15:52;3.43;;;1.53;;
13641;SDS011;6894;52.196;9.904;2023-06-14T08:18:20;3.07;;;1.73;;
13641;SDS011;6894;52.196;9.904;2023-06-14T08:20:46;2.43;;;1.80;;
13641;SDS011;6894;52.196;9.904;2023-06-14T08:23:13;2.33;;;1.73;;
13641;SDS011;6894;52.196;9.904;2023-06-14T08:25:44;3.57;;;1.60;;
13641;SDS011;6894;52.196;9.904;2023-06-14T08:28:10;3.90;;;2.00;;
13641;SDS011;6894;52.196;9.904;2023-06-14T08:30:37;2.40;;;1.80;;
13641;SDS011;6894;52.196;9.904;2023-06-14T08:33:05;1.60;;;1.50;;
13641;SDS011;6894;52.196;9.904;2023-06-14T08:35:32;1.57;;;1.47;;
13641;SDS011;6894;52.196;9.904;2023-06-14T08:38:01;1.77;;;1.60;;
13641;SDS011;6894;52.196;9.904;2023-06-14T08:40:27;2.77;;;1.80;;
13641;SDS011;6894;52.196;9.904;2023-06-14T08:42:56;1.80;;;1.53;;
13641;SDS011;6894;52.196;9.904;2023-06-14T08:45:23;4.20;;;1.60;;
13641;SDS011;6894;52.196;9.904;2023-06-14T08:47:51;4.83;;;2.00;;
13641;SDS011;6894;52.196;9.904;2023-06-14T08:50:24;1.70;;;1.50;;
13641;SDS011;6894;52.196;9.904;2023-06-14T08:52:55;2.33;;;1.53;;
13641;SDS011;6894;52.196;9.904;2023-06-14T08:55:25;1.83;;;1.40;;
13641;SDS011;6894;52.196;9.904;2023-06-14T08:57:54;1.47;;;1.13;;
13641;SDS011;6894;52.196;9.904;2023-06-14T09:00:23;1.67;;;1.33;;
13641;SDS011;6894;52.196;9.904;2023-06-14T09:02:50;2.37;;;1.33;;
13641;SDS011;6894;52.196;9.904;2023-06-14T09:05:20;2.03;;;1.50;;
13641;SDS011;6894;52.196;9.904;2023-06-14T09:07:49;2.93;;;1.40;;
13641;SDS011;6894;52.196;9.904;2023-06-14T09:10:17;1.50;;;1.40;;
13641;SDS011;6894;52.196;9.904;2023-06-14T09:12:44;2.60;;;1.30;;
13641;SDS011;6894;52.196;9.904;2023-06-14T09:15:11;1.80;;;1.53;;
13641;SDS011;6894;52.196;9.904;2023-06-14T09:17:39;3.37;;;1.43;;
13641;SDS011;6894;52.196;9.904;2023-06-14T09:20:07;1.70;;;1.33;;
13641;SDS011;6894;52.196;9.904;2023-06-14T09:22:37;3.57;;;1.70;;
13641;SDS011;6894;52.196;9.904;2023-06-14T09:25:04;2.23;;;2.03;;
13641;SDS011;6894;52.196;9.904;2023-06-14T09:27:32;2.07;;;1.40;;
13641;SDS011;6894;52.196;9.904;2023-06-14T09:29:59;1.80;;;1.50;;
13641;SDS011;6894;52.196;9.904;2023-06-14T09:32:26;1.90;;;1.47;;
13641;SDS011;6894;52.196;9.904;2023-06-14T09:34:53;2.20;;;1.40;;
13641;SDS011;6894;52.196;9.904;2023-06-14T09:37:27;2.87;;;1.50;;
13641;SDS011;6894;52.196;9.904;2023-06-14T09:39:56;3.07;;;1.50;;
13641;SDS011;6894;52.196;9.904;2023-06-14T09:42:24;1.93;;;1.50;;
13641;SDS011;6894;52.196;9.904;2023-06-14T09:44:53;1.20;;;1.10;;
13641;SDS011;6894;52.196;9.904;2023-06-14T09:47:22;1.33;;;1.20;;
13641;SDS011;6894;52.196;9.904;2023-06-14T09:49:49;3.93;;;1.60;;
13641;SDS011;6894;52.196;9.904;2023-06-14T09:52:17;1.50;;;1.10;;
13641;SDS011;6894;52.196;9.904;2023-06-14T09:54:45;3.03;;;1.43;;
13641;SDS011;6894;52.196;9.904;2023-06-14T09:57:21;2.00;;;1.60;;
13641;SDS011;6894;52.196;9.904;2023-06-14T09:59:48;1.57;;;1.33;;
13641;SDS011;6894;52.196;9.904;2023-06-14T10:02:21;3.20;;;1.90;;
13641;SDS011;6894;52.196;9.904;2023-06-14T10:04:53;1.40;;;1.30;;
13641;SDS011;6894;52.196;9.904;2023-06-14T10:07:26;1.27;;;1.17;;
13641;SDS011;6894;52.196;9.904;2023-06-14T10:09:56;1.50;;;1.30;;
13641;SDS011;6894;52.196;9.904;2023-06-14T10:12:24;1.67;;;1.30;;
13641;SDS011;6894;52.196;9.904;2023-06-14T10:14:52;1.90;;;1.30;;
13641;SDS011;6894;52.196;9.904;2023-06-14T10:17:21;3.70;;;1.50;;
13641;SDS011;6894;52.196;9.904;2023-06-14T10:19:54;1.43;;;1.20;;
13641;SDS011;6894;52.196;9.904;2023-06-14T10:22:26;1.40;;;1.30;;
13641;SDS011;6894;52.196;9.904;2023-06-14T10:24:58;1.47;;;1.37;;
13641;SDS011;6894;52.196;9.904;2023-06-14T10:27:27;1.87;;;1.30;;
13641;SDS011;6894;52.196;9.904;2023-06-14T10:30:02;2.40;;;1.30;;
13641;SDS011;6894;52.196;9.904;2023-06-14T10:32:31;2.40;;;1.70;;
13641;SDS011;6894;52.196;9.904;2023-06-14T10:34:58;2.40;;;1.50;;
13641;SDS011;6894;52.196;9.904;2023-06-14T10:37:26;1.97;;;1.87;;
13641;SDS011;6894;52.196;9.904;2023-06-14T10:39:53;1.43;;;1.20;;
13641;SDS011;6894;52.196;9.904;2023-06-14T10:42:20;1.63;;;1.50;;
13641;SDS011;6894;52.196;9.904;2023-06-14T10:44:50;4.43;;;1.73;;
13641;SDS011;6894;52.196;9.904;2023-06-14T10:47:21;1.67;;;1.50;;
13641;SDS011;6894;52.196;9.904;2023-06-14T10:49:52;2.47;;;1.80;;
13641;SDS011;6894;52.196;9.904;2023-06-14T10:52:24;1.83;;;1.73;;
13641;SDS011;6894;52.196;9.904;2023-06-14T10:57:40;3.40;;;1.30;;
13641;SDS011;6894;52.196;9.904;2023-06-14T11:00:09;1.97;;;1.43;;
13641;SDS011;6894;52.196;9.904;2023-06-14T11:05:54;2.90;;;1.83;;
13641;SDS011;6894;52.196;9.904;2023-06-14T11:11:29;4.07;;;1.60;;
13641;SDS011;6894;52.196;9.904;2023-06-14T11:13:58;2.83;;;2.10;;
13641;SDS011;6894;52.196;9.904;2023-06-14T11:16:28;3.70;;;1.60;;
13641;SDS011;6894;52.196;9.904;2023-06-14T11:18:57;2.43;;;1.70;;
13641;SDS011;6894;52.196;9.904;2023-06-14T11:21:24;3.33;;;1.93;;
13641;SDS011;6894;52.196;9.904;2023-06-14T11:23:56;4.00;;;2.07;;
13641;SDS011;6894;52.196;9.904;2023-06-14T11:26:26;3.77;;;2.17;;
13641;SDS011;6894;52.196;9.904;2023-06-14T11:28:57;3.57;;;2.13;;
13641;SDS011;6894;52.196;9.904;2023-06-14T11:31:25;4.03;;;2.20;;
13641;SDS011;6894;52.196;9.904;2023-06-14T11:33:54;3.43;;;1.70;;
13641;SDS011;6894;52.196;9.904;2023-06-14T11:36:21;3.20;;;2.00;;
13641;SDS011;6894;52.196;9.904;2023-06-14T11:38:48;2.57;;;1.70;;
13641;SDS011;6894;52.196;9.904;2023-06-14T11:41:15;4.70;;;2.40;;
13641;SDS011;6894;52.196;9.904;2023-06-14T11:43:42;2.80;;;2.07;;
13641;SDS011;6894;52.196;9.904;2023-06-14T11:46:12;2.03;;;1.83;;
13641;SDS011;6894;52.196;9.904;2023-06-14T11:48:41;2.13;;;1.90;;
13641;SDS011;6894;52.196;9.904;2023-06-14T11:51:09;1.60;;;1.50;;
13641;SDS011;6894;52.196;9.904;2023-06-14T11:53:36;3.77;;;2.30;;
13641;SDS011;6894;52.196;9.904;2023-06-14T11:56:03;4.17;;;1.93;;
13641;SDS011;6894;52.196;9.904;2023-06-14T11:58:31;2.23;;;2.03;;
13641;SDS011;6894;52.196;9.904;2023-06-14T12:00:57;3.87;;;1.90;;
13641;SDS011;6894;52.196;9.904;2023-06-14T12:03:24;2.40;;;2.17;;
13641;SDS011;6894;52.196;9.904;2023-06-14T12:06:01;3.97;;;1.90;;
13641;SDS011;6894;52.196;9.904;2023-06-14T12:08:33;3.20;;;2.10;;
13641;SDS011;6894;52.196;9.904;2023-06-14T12:11:05;2.10;;;1.80;;
13641;SDS011;6894;52.196;9.904;2023-06-14T12:13:33;2.40;;;2.00;;
13641;SDS011;6894;52.196;9.904;2023-06-14T12:16:01;2.40;;;2.20;;
13641;SDS011;6894;52.196;9.904;2023-06-14T12:18:32;2.37;;;2.03;;
13641;SDS011;6894;52.196;9.904;2023-06-14T12:21:00;2.73;;;1.90;;
13641;SDS011;6894;52.196;9.904;2023-06-14T12:23:39;2.50;;;2.03;;
13641;SDS011;6894;52.196;9.904;2023-06-14T12:26:08;2.77;;;2.20;;
13641;SDS011;6894;52.196;9.904;2023-06-14T12:28:35;2.67;;;2.23;;
13641;SDS011;6894;52.196;9.904;2023-06-14T12:31:02;2.20;;;2.00;;
13641;SDS011;6894;52.196;9.904;2023-06-14T12:33:29;2.77;;;1.90;;
13641;SDS011;6894;52.196;9.904;2023-06-14T12:35:56;3.27;;;2.10;;
13641;SDS011;6894;52.196;9.904;2023-06-14T12:38:24;3.20;;;2.10;;
13641;SDS011;6894;52.196;9.904;2023-06-14T12:40:52;3.47;;;2.30;;
13641;SDS011;6894;52.196;9.904;2023-06-14T12:43:18;2.73;;;2.23;;
13641;SDS011;6894;52.196;9.904;2023-06-14T12:45:45;3.53;;;2.13;;
13641;SDS011;6894;52.196;9.904;2023-06-14T12:48:12;4.20;;;2.50;;
13641;SDS011;6894;52.196;9.904;2023-06-14T12:50:39;3.37;;;2.40;;
13641;SDS011;6894;52.196;9.904;2023-06-14T12:53:05;3.10;;;2.57;;
13641;SDS011;6894;52.196;9.904;2023-06-14T12:55:32;3.63;;;2.77;;
13641;SDS011;6894;52.196;9.904;2023-06-14T12:58:00;3.20;;;2.40;;
13641;SDS011;6894;52.196;9.904;2023-06-14T13:00:27;4.37;;;2.40;;
13641;SDS011;6894;52.196;9.904;2023-06-14T13:02:55;4.97;;;2.33;;
13641;SDS011;6894;52.196;9.904;2023-06-14T13:05:22;3.60;;;2.53;;
13641;SDS011;6894;52.196;9.904;2023-06-14T13:07:50;4.57;;;2.60;;
13641;SDS011;6894;52.196;9.904;2023-06-14T13:10:17;5.33;;;2.50;;
13641;SDS011;6894;52.196;9.904;2023-06-14T13:12:44;3.27;;;2.93;;
13641;SDS011;6894;52.196;9.904;2023-06-14T13:15:12;4.82;;;3.20;;
13641;SDS011;6894;52.196;9.904;2023-06-14T13:17:39;4.45;;;2.40;;
13641;SDS011;6894;52.196;9.904;2023-06-14T13:20:09;3.65;;;2.67;;
13641;SDS011;6894;52.196;9.904;2023-06-14T13:22:36;4.60;;;2.53;;
13641;SDS011;6894;52.196;9.904;2023-06-14T13:25:05;3.72;;;2.60;;
13641;SDS011;6894;52.196;9.904;2023-06-14T13:27:32;2.92;;;2.30;;
13641;SDS011;6894;52.196;9.904;2023-06-14T13:29:59;4.82;;;3.08;;
13641;SDS011;6894;52.196;9.904;2023-06-14T13:32:27;5.22;;;2.80;;
13641;SDS011;6894;52.196;9.904;2023-06-14T13:34:54;3.70;;;2.72;;
13641;SDS011;6894;52.196;9.904;2023-06-14T13:37:21;5.87;;;2.40;;
13641;SDS011;6894;52.196;9.904;2023-06-14T13:39:47;4.65;;;2.70;;
13641;SDS011;6894;52.196;9.904;2023-06-14T13:42:14;7.10;;;3.05;;
13641;SDS011;6894;52.196;9.904;2023-06-14T13:44:41;4.37;;;3.10;;
13641;SDS011;6894;52.196;9.904;2023-06-14T13:47:07;4.70;;;2.60;;
13641;SDS011;6894;52.196;9.904;2023-06-14T13:49:35;2.87;;;2.67;;
13641;SDS011;6894;52.196;9.904;2023-06-14T13:52:02;4.50;;;2.47;;
13641;SDS011;6894;52.196;9.904;2023-06-14T13:54:30;3.15;;;2.83;;
13641;SDS011;6894;52.196;9.904;2023-06-14T13:56:57;2.70;;;2.50;;
13641;SDS011;6894;52.196;9.904;2023-06-14T13:59:24;5.37;;;3.00;;
13641;SDS011;6894;52.196;9.904;2023-06-14T14:01:51;3.72;;;2.70;;
13641;SDS011;6894;52.196;9.904;2023-06-14T14:04:18;3.28;;;2.95;;
13641;SDS011;6894;52.196;9.904;2023-06-14T14:06:46;4.73;;;2.63;;
13641;SDS011;6894;52.196;9.904;2023-06-14T14:09:13;4.22;;;3.10;;
13641;SDS011;6894;52.196;9.904;2023-06-14T14:11:40;3.55;;;3.00;;
13641;SDS011;6894;52.196;9.904;2023-06-14T14:14:07;4.25;;;2.90;;
13641;SDS011;6894;52.196;9.904;2023-06-14T14:16:35;3.20;;;2.90;;
13641;SDS011;6894;52.196;9.904;2023-06-14T14:19:02;3.15;;;2.85;;
13641;SDS011;6894;52.196;9.904;2023-06-14T14:21:29;3.78;;;2.83;;
13641;SDS011;6894;52.196;9.904;2023-06-14T14:23:57;4.43;;;2.60;;
13641;SDS011;6894;52.196;9.904;2023-06-14T14:26:23;2.80;;;2.60;;
13641;SDS011;6894;52.196;9.904;2023-06-14T14:28:50;5.28;;;2.92;;
13641;SDS011;6894;52.196;9.904;2023-06-14T14:31:17;5.07;;;2.83;;
13641;SDS011;6894;52.196;9.904;2023-06-14T14:33:44;4.25;;;2.67;;
13641;SDS011;6894;52.196;9.904;2023-06-14T14:36:11;6.30;;;2.92;;
13641;SDS011;6894;52.196;9.904;2023-06-14T14:38:38;3.10;;;2.60;;
13641;SDS011;6894;52.196;9.904;2023-06-14T14:41:06;3.93;;;2.50;;
13641;SDS011;6894;52.196;9.904;2023-06-14T14:43:33;9.20;;;2.78;;
13641;SDS011;6894;52.196;9.904;2023-06-14T14:46:00;6.07;;;3.10;;
13641;SDS011;6894;52.196;9.904;2023-06-14T14:48:26;3.83;;;2.80;;
13641;SDS011;6894;52.196;9.904;2023-06-14T14:50:53;2.87;;;2.50;;
13641;SDS011;6894;52.196;9.904;2023-06-14T14:53:20;4.50;;;2.47;;
13641;SDS011;6894;52.196;9.904;2023-06-14T14:55:46;2.90;;;2.47;;
13641;SDS011;6894;52.196;9.904;2023-06-14T14:58:15;4.35;;;2.67;;
13641;SDS011;6894;52.196;9.904;2023-06-14T15:00:42;2.83;;;2.60;;
13641;SDS011;6894;52.196;9.904;2023-06-14T15:03:09;4.03;;;2.50;;
13641;SDS011;6894;52.196;9.904;2023-06-14T15:05:36;5.28;;;2.53;;
13641;SDS011;6894;52.196;9.904;2023-06-14T15:08:03;3.28;;;2.60;;
13641;SDS011;6894;52.196;9.904;2023-06-14T15:10:35;6.13;;;2.63;;
13641;SDS011;6894;52.196;9.904;2023-06-14T15:13:02;6.70;;;2.77;;